sensor_id;sensor_type;location;lat;lon;timestamp;pressure;altitude;pressure_sealevel;temperature;humidity
19843;BME280;10082;51.038;6.992;2022-11-15T00:01:43;112171.53;;;-144.33;100.00
19843;BME280;10082;51.038;6.992;2022-11-15T00:04:29;112171.53;;;-144.33;100.00
19843;BME280;10082;51.038;6.992;2022-11-15T00:07:14;112171.53;;;-144.33;100.00
19843;BME280;10082;51.038;6.992;2022-11-15T00:10:02;112171.53;;;-144.33;100.00
19843;BME280;10082;51.038;6.992;2022-11-15T00:12:48;112171.53;;;-144.33;100.00
19843;BME280;10082;51.038;6.992;2022-11-15T00:15:35;112171.53;;;-144.33;100.00
19843;BME280;10082;51.038;6.992;2022-11-15T00:18:21;112171.53;;;-144.33;100.00
19843;BME280;10082;51.038;6.992;2022-11-15T00:21:09;112171.53;;;-144.33;100.00
19843;BME280;10082;51.038;6.992;2022-11-15T00:23:55;112171.53;;;-144.33;100.00
19843;BME280;10082;51.038;6.992;2022-11-15T00:26:43;112171.53;;;-144.33;100.00
19843;BME280;10082;51.038;6.992;2022-11-15T00:29:28;112171.53;;;-144.33;100.00
19843;BME280;10082;51.038;6.992;2022-11-15T00:32:14;112171.53;;;-144.33;100.00
19843;BME280;10082;51.038;6.992;2022-11-15T00:34:59;112171.53;;;-144.33;100.00
19843;BME280;10082;51.038;6.992;2022-11-15T00:37:45;112171.53;;;-144.33;100.00
19843;BME280;10082;51.038;6.992;2022-11-15T00:40:31;112171.53;;;-144.33;100.00
19843;BME280;10082;51.038;6.992;2022-11-15T00:43:18;112171.53;;;-144.33;100.00
19843;BME280;10082;51.038;6.992;2022-11-15T00:46:04;112171.53;;;-144.33;100.00
19843;BME280;10082;51.038;6.992;2022-11-15T00:48:52;112171.53;;;-144.33;100.00
19843;BME280;10082;51.038;6.992;2022-11-15T00:51:37;112171.53;;;-144.33;100.00
19843;BME280;10082;51.038;6.992;2022-11-15T00:54:23;112171.53;;;-144.33;100.00
19843;BME280;10082;51.038;6.992;2022-11-15T00:57:08;112171.53;;;-144.33;100.00
19843;BME280;10082;51.038;6.992;2022-11-15T00:59:55;112171.53;;;-144.33;100.00
19843;BME280;10082;51.038;6.992;2022-11-15T01:02:41;112171.53;;;-144.33;100.00
19843;BME280;10082;51.038;6.992;2022-11-15T01:05:26;112171.53;;;-144.33;100.00
19843;BME280;10082;51.038;6.992;2022-11-15T01:08:12;112171.53;;;-144.33;100.00
19843;BME280;10082;51.038;6.992;2022-11-15T01:11:00;112171.53;;;-144.33;100.00
19843;BME280;10082;51.038;6.992;2022-11-15T01:13:46;112171.53;;;-144.33;100.00
19843;BME280;10082;51.038;6.992;2022-11-15T01:16:33;112171.53;;;-144.33;100.00
19843;BME280;10082;51.038;6.992;2022-11-15T01:19:19;112171.53;;;-144.33;100.00
19843;BME280;10082;51.038;6.992;2022-11-15T01:22:05;112171.53;;;-144.33;100.00
19843;BME280;10082;51.038;6.992;2022-11-15T01:24:51;112171.53;;;-144.33;100.00
19843;BME280;10082;51.038;6.992;2022-11-15T01:27:37;112171.53;;;-144.33;100.00
19843;BME280;10082;51.038;6.992;2022-11-15T01:30:23;112171.53;;;-144.33;100.00
19843;BME280;10082;51.038;6.992;2022-11-15T01:33:10;112171.53;;;-144.33;100.00
19843;BME280;10082;51.038;6.992;2022-11-15T01:35:55;112171.53;;;-144.33;100.00
19843;BME280;10082;51.038;6.992;2022-11-15T01:38:41;112171.53;;;-144.33;100.00
19843;BME280;10082;51.038;6.992;2022-11-15T01:41:29;112171.53;;;-144.33;100.00
19843;BME280;10082;51.038;6.992;2022-11-15T01:47:40;112171.53;;;-144.33;100.00
19843;BME280;10082;51.038;6.992;2022-11-15T01:50:31;112171.53;;;-144.33;100.00
19843;BME280;10082;51.038;6.992;2022-11-15T01:53:19;112171.53;;;-144.33;100.00
19843;BME280;10082;51.038;6.992;2022-11-15T01:56:10;112171.53;;;-144.33;100.00
19843;BME280;10082;51.038;6.992;2022-11-15T01:58:59;112171.53;;;-144.33;100.00
19843;BME280;10082;51.038;6.992;2022-11-15T02:01:47;112171.53;;;-144.33;100.00
19843;BME280;10082;51.038;6.992;2022-11-15T02:04:34;112171.53;;;-144.33;100.00
19843;BME280;10082;51.038;6.992;2022-11-15T02:07:23;112171.53;;;-144.33;100.00
19843;BME280;10082;51.038;6.992;2022-11-15T02:10:12;112171.53;;;-144.33;100.00
19843;BME280;10082;51.038;6.992;2022-11-15T02:12:59;112171.53;;;-144.33;100.00
19843;BME280;10082;51.038;6.992;2022-11-15T02:15:55;112171.53;;;-144.33;100.00
19843;BME280;10082;51.038;6.992;2022-11-15T02:18:49;112171.53;;;-144.33;100.00
19843;BME280;10082;51.038;6.992;2022-11-15T02:21:39;112171.53;;;-144.33;100.00
19843;BME280;10082;51.038;6.992;2022-11-15T02:24:58;112171.53;;;-144.33;100.00
19843;BME280;10082;51.038;6.992;2022-11-15T02:27:59;112171.53;;;-144.33;100.00
19843;BME280;10082;51.038;6.992;2022-11-15T02:30:54;112171.53;;;-144.33;100.00
19843;BME280;10082;51.038;6.992;2022-11-15T02:33:49;112171.53;;;-144.33;100.00
19843;BME280;10082;51.038;6.992;2022-11-15T02:36:43;112171.53;;;-144.33;100.00
19843;BME280;10082;51.038;6.992;2022-11-15T02:39:38;112171.53;;;-144.33;100.00
19843;BME280;10082;51.038;6.992;2022-11-15T02:42:37;112171.53;;;-144.33;100.00
19843;BME280;10082;51.038;6.992;2022-11-15T02:45:47;112171.53;;;-144.33;100.00
19843;BME280;10082;51.038;6.992;2022-11-15T02:48:34;112171.53;;;-144.33;100.00
19843;BME280;10082;51.038;6.992;2022-11-15T02:51:21;112171.53;;;-144.33;100.00
19843;BME280;10082;51.038;6.992;2022-11-15T02:54:08;112171.53;;;-144.33;100.00
19843;BME280;10082;51.038;6.992;2022-11-15T02:56:59;112171.53;;;-144.33;100.00
19843;BME280;10082;51.038;6.992;2022-11-15T03:00:01;112171.53;;;-144.33;100.00
19843;BME280;10082;51.038;6.992;2022-11-15T03:03:10;112171.53;;;-144.33;100.00
19843;BME280;10082;51.038;6.992;2022-11-15T03:06:12;112171.53;;;-144.33;100.00
19843;BME280;10082;51.038;6.992;2022-11-15T03:09:04;112171.53;;;-144.33;100.00
19843;BME280;10082;51.038;6.992;2022-11-15T03:11:56;112171.53;;;-144.33;100.00
19843;BME280;10082;51.038;6.992;2022-11-15T03:14:46;112171.53;;;-144.33;100.00
19843;BME280;10082;51.038;6.992;2022-11-15T03:17:40;112171.53;;;-144.33;100.00
19843;BME280;10082;51.038;6.992;2022-11-15T03:20:29;112171.53;;;-144.33;100.00
19843;BME280;10082;51.038;6.992;2022-11-15T03:23:18;112171.53;;;-144.33;100.00
19843;BME280;10082;51.038;6.992;2022-11-15T03:26:06;112171.53;;;-144.33;100.00
19843;BME280;10082;51.038;6.992;2022-11-15T03:28:55;112171.53;;;-144.33;100.00
19843;BME280;10082;51.038;6.992;2022-11-15T03:31:44;112171.53;;;-144.33;100.00
19843;BME280;10082;51.038;6.992;2022-11-15T03:34:34;112171.53;;;-144.33;100.00
19843;BME280;10082;51.038;6.992;2022-11-15T03:37:25;112171.53;;;-144.33;100.00
19843;BME280;10082;51.038;6.992;2022-11-15T03:40:17;112171.53;;;-144.33;100.00
19843;BME280;10082;51.038;6.992;2022-11-15T03:43:07;112171.53;;;-144.33;100.00
19843;BME280;10082;51.038;6.992;2022-11-15T03:45:57;112171.53;;;-144.33;100.00
19843;BME280;10082;51.038;6.992;2022-11-15T03:49:02;112171.53;;;-144.33;100.00
19843;BME280;10082;51.038;6.992;2022-11-15T03:51:51;112171.53;;;-144.33;100.00
19843;BME280;10082;51.038;6.992;2022-11-15T03:54:36;112171.53;;;-144.33;100.00
19843;BME280;10082;51.038;6.992;2022-11-15T03:57:23;112171.53;;;-144.33;100.00
19843;BME280;10082;51.038;6.992;2022-11-15T04:00:09;112171.53;;;-144.33;100.00
19843;BME280;10082;51.038;6.992;2022-11-15T04:02:56;112171.53;;;-144.33;100.00
19843;BME280;10082;51.038;6.992;2022-11-15T04:05:41;112171.53;;;-144.33;100.00
19843;BME280;10082;51.038;6.992;2022-11-15T04:08:27;112171.53;;;-144.33;100.00
19843;BME280;10082;51.038;6.992;2022-11-15T04:11:13;112171.53;;;-144.33;100.00
19843;BME280;10082;51.038;6.992;2022-11-15T04:14:00;112171.53;;;-144.33;100.00
19843;BME280;10082;51.038;6.992;2022-11-15T04:16:45;112171.53;;;-144.33;100.00
19843;BME280;10082;51.038;6.992;2022-11-15T04:19:31;112171.53;;;-144.33;100.00
19843;BME280;10082;51.038;6.992;2022-11-15T04:22:34;112171.53;;;-144.33;100.00
19843;BME280;10082;51.038;6.992;2022-11-15T04:25:37;112171.53;;;-144.33;100.00
19843;BME280;10082;51.038;6.992;2022-11-15T04:28:22;112171.53;;;-144.33;100.00
19843;BME280;10082;51.038;6.992;2022-11-15T04:31:09;112171.53;;;-144.33;100.00
19843;BME280;10082;51.038;6.992;2022-11-15T04:33:55;112171.53;;;-144.33;100.00
19843;BME280;10082;51.038;6.992;2022-11-15T04:36:41;112171.53;;;-144.33;100.00
19843;BME280;10082;51.038;6.992;2022-11-15T04:39:44;112171.53;;;-144.33;100.00
19843;BME280;10082;51.038;6.992;2022-11-15T04:42:30;112171.53;;;-144.33;100.00
19843;BME280;10082;51.038;6.992;2022-11-15T04:45:16;112171.53;;;-144.33;100.00
19843;BME280;10082;51.038;6.992;2022-11-15T04:48:04;112171.53;;;-144.33;100.00
19843;BME280;10082;51.038;6.992;2022-11-15T04:50:50;112171.53;;;-144.33;100.00
19843;BME280;10082;51.038;6.992;2022-11-15T04:53:36;112171.53;;;-144.33;100.00
19843;BME280;10082;51.038;6.992;2022-11-15T04:56:21;112171.53;;;-144.33;100.00
19843;BME280;10082;51.038;6.992;2022-11-15T04:59:07;112171.53;;;-144.33;100.00
19843;BME280;10082;51.038;6.992;2022-11-15T05:01:53;112171.53;;;-144.33;100.00
19843;BME280;10082;51.038;6.992;2022-11-15T05:04:40;112171.53;;;-144.33;100.00
19843;BME280;10082;51.038;6.992;2022-11-15T05:07:25;112171.53;;;-144.33;100.00
19843;BME280;10082;51.038;6.992;2022-11-15T05:10:11;112171.53;;;-144.33;100.00
19843;BME280;10082;51.038;6.992;2022-11-15T05:12:57;112171.53;;;-144.33;100.00
19843;BME280;10082;51.038;6.992;2022-11-15T05:15:42;112171.53;;;-144.33;100.00
19843;BME280;10082;51.038;6.992;2022-11-15T05:18:29;112171.53;;;-144.33;100.00
19843;BME280;10082;51.038;6.992;2022-11-15T05:21:16;112171.53;;;-144.33;100.00
19843;BME280;10082;51.038;6.992;2022-11-15T05:24:02;112171.53;;;-144.33;100.00
19843;BME280;10082;51.038;6.992;2022-11-15T05:26:48;112171.53;;;-144.33;100.00
19843;BME280;10082;51.038;6.992;2022-11-15T05:29:35;112171.53;;;-144.33;100.00
19843;BME280;10082;51.038;6.992;2022-11-15T05:32:21;112171.53;;;-144.33;100.00
19843;BME280;10082;51.038;6.992;2022-11-15T05:35:08;112171.53;;;-144.33;100.00
19843;BME280;10082;51.038;6.992;2022-11-15T05:37:59;112171.53;;;-144.33;100.00
19843;BME280;10082;51.038;6.992;2022-11-15T05:40:45;112171.53;;;-144.33;100.00
19843;BME280;10082;51.038;6.992;2022-11-15T05:43:33;112171.53;;;-144.33;100.00
19843;BME280;10082;51.038;6.992;2022-11-15T05:46:21;112171.53;;;-144.33;100.00
19843;BME280;10082;51.038;6.992;2022-11-15T05:49:10;112171.53;;;-144.33;100.00
19843;BME280;10082;51.038;6.992;2022-11-15T05:51:59;112171.53;;;-144.33;100.00
19843;BME280;10082;51.038;6.992;2022-11-15T05:54:46;112171.53;;;-144.33;100.00
19843;BME280;10082;51.038;6.992;2022-11-15T05:57:32;112171.53;;;-144.33;100.00
19843;BME280;10082;51.038;6.992;2022-11-15T06:00:18;112171.53;;;-144.33;100.00
19843;BME280;10082;51.038;6.992;2022-11-15T06:03:04;112171.53;;;-144.33;100.00
19843;BME280;10082;51.038;6.992;2022-11-15T06:05:50;112171.53;;;-144.33;100.00
19843;BME280;10082;51.038;6.992;2022-11-15T06:08:35;112171.53;;;-144.33;100.00
19843;BME280;10082;51.038;6.992;2022-11-15T06:11:22;112171.53;;;-144.33;100.00
19843;BME280;10082;51.038;6.992;2022-11-15T06:14:08;112171.53;;;-144.33;100.00
19843;BME280;10082;51.038;6.992;2022-11-15T06:16:54;112171.53;;;-144.33;100.00
19843;BME280;10082;51.038;6.992;2022-11-15T06:19:39;112171.53;;;-144.33;100.00
19843;BME280;10082;51.038;6.992;2022-11-15T06:22:25;112171.53;;;-144.33;100.00
19843;BME280;10082;51.038;6.992;2022-11-15T06:25:11;112171.53;;;-144.33;100.00
19843;BME280;10082;51.038;6.992;2022-11-15T06:27:58;112171.53;;;-144.33;100.00
19843;BME280;10082;51.038;6.992;2022-11-15T06:30:44;112171.53;;;-144.33;100.00
19843;BME280;10082;51.038;6.992;2022-11-15T06:33:30;112171.53;;;-144.33;100.00
19843;BME280;10082;51.038;6.992;2022-11-15T06:36:15;112171.53;;;-144.33;100.00
19843;BME280;10082;51.038;6.992;2022-11-15T06:39:01;112171.53;;;-144.33;100.00
19843;BME280;10082;51.038;6.992;2022-11-15T06:41:47;112171.53;;;-144.33;100.00
19843;BME280;10082;51.038;6.992;2022-11-15T06:44:34;112171.53;;;-144.33;100.00
19843;BME280;10082;51.038;6.992;2022-11-15T06:47:20;112171.53;;;-144.33;100.00
19843;BME280;10082;51.038;6.992;2022-11-15T06:50:07;112171.53;;;-144.33;100.00
19843;BME280;10082;51.038;6.992;2022-11-15T06:52:52;112171.53;;;-144.33;100.00
19843;BME280;10082;51.038;6.992;2022-11-15T06:55:39;112171.53;;;-144.33;100.00
19843;BME280;10082;51.038;6.992;2022-11-15T06:58:25;112171.53;;;-144.33;100.00
19843;BME280;10082;51.038;6.992;2022-11-15T07:01:13;112171.53;;;-144.33;100.00
19843;BME280;10082;51.038;6.992;2022-11-15T07:03:59;112171.53;;;-144.33;100.00
19843;BME280;10082;51.038;6.992;2022-11-15T07:06:46;112171.53;;;-144.33;100.00
19843;BME280;10082;51.038;6.992;2022-11-15T07:09:31;112171.53;;;-144.33;100.00
19843;BME280;10082;51.038;6.992;2022-11-15T07:12:17;112171.53;;;-144.33;100.00
19843;BME280;10082;51.038;6.992;2022-11-15T07:15:03;112171.53;;;-144.33;100.00
19843;BME280;10082;51.038;6.992;2022-11-15T07:17:51;112171.53;;;-144.33;100.00
19843;BME280;10082;51.038;6.992;2022-11-15T07:20:37;112171.53;;;-144.33;100.00
19843;BME280;10082;51.038;6.992;2022-11-15T07:23:23;112171.53;;;-144.33;100.00
19843;BME280;10082;51.038;6.992;2022-11-15T07:26:09;112171.53;;;-144.33;100.00
19843;BME280;10082;51.038;6.992;2022-11-15T07:28:55;112171.53;;;-144.33;100.00
19843;BME280;10082;51.038;6.992;2022-11-15T07:31:40;112171.53;;;-144.33;100.00
19843;BME280;10082;51.038;6.992;2022-11-15T07:34:27;112171.53;;;-144.33;100.00
19843;BME280;10082;51.038;6.992;2022-11-15T07:37:13;112171.53;;;-144.33;100.00
19843;BME280;10082;51.038;6.992;2022-11-15T07:39:59;112171.53;;;-144.33;100.00
19843;BME280;10082;51.038;6.992;2022-11-15T07:42:44;112171.53;;;-144.33;100.00
19843;BME280;10082;51.038;6.992;2022-11-15T07:45:41;112171.53;;;-144.33;100.00
19843;BME280;10082;51.038;6.992;2022-11-15T07:48:28;112171.53;;;-144.33;100.00
19843;BME280;10082;51.038;6.992;2022-11-15T07:51:16;112171.53;;;-144.33;100.00
19843;BME280;10082;51.038;6.992;2022-11-15T07:54:01;112171.53;;;-144.33;100.00
19843;BME280;10082;51.038;6.992;2022-11-15T07:56:47;112171.53;;;-144.33;100.00
19843;BME280;10082;51.038;6.992;2022-11-15T07:59:33;112171.53;;;-144.33;100.00
19843;BME280;10082;51.038;6.992;2022-11-15T08:02:20;112171.53;;;-144.33;100.00
19843;BME280;10082;51.038;6.992;2022-11-15T08:05:06;112171.53;;;-144.33;100.00
19843;BME280;10082;51.038;6.992;2022-11-15T08:07:54;112171.53;;;-144.33;100.00
19843;BME280;10082;51.038;6.992;2022-11-15T08:10:40;112171.53;;;-144.33;100.00
19843;BME280;10082;51.038;6.992;2022-11-15T08:13:25;112171.53;;;-144.33;100.00
19843;BME280;10082;51.038;6.992;2022-11-15T08:16:11;112171.53;;;-144.33;100.00
19843;BME280;10082;51.038;6.992;2022-11-15T08:18:56;112171.53;;;-144.33;100.00
19843;BME280;10082;51.038;6.992;2022-11-15T08:21:42;112171.53;;;-144.33;100.00
19843;BME280;10082;51.038;6.992;2022-11-15T08:24:29;112171.53;;;-144.33;100.00
19843;BME280;10082;51.038;6.992;2022-11-15T08:27:15;112171.53;;;-144.33;100.00
19843;BME280;10082;51.038;6.992;2022-11-15T08:30:01;112171.53;;;-144.33;100.00
19843;BME280;10082;51.038;6.992;2022-11-15T08:32:47;112171.53;;;-144.33;100.00
19843;BME280;10082;51.038;6.992;2022-11-15T08:35:33;112171.53;;;-144.33;100.00
19843;BME280;10082;51.038;6.992;2022-11-15T08:38:18;112171.53;;;-144.33;100.00
19843;BME280;10082;51.038;6.992;2022-11-15T08:41:06;112171.53;;;-144.33;100.00
19843;BME280;10082;51.038;6.992;2022-11-15T08:43:52;112171.53;;;-144.33;100.00
19843;BME280;10082;51.038;6.992;2022-11-15T08:46:37;112171.53;;;-144.33;100.00
19843;BME280;10082;51.038;6.992;2022-11-15T08:49:23;112171.53;;;-144.33;100.00
19843;BME280;10082;51.038;6.992;2022-11-15T08:52:08;112171.53;;;-144.33;100.00
19843;BME280;10082;51.038;6.992;2022-11-15T08:54:54;112171.53;;;-144.33;100.00
19843;BME280;10082;51.038;6.992;2022-11-15T08:57:41;112171.53;;;-144.33;100.00
19843;BME280;10082;51.038;6.992;2022-11-15T09:00:26;112171.53;;;-144.33;100.00
19843;BME280;10082;51.038;6.992;2022-11-15T09:03:12;112171.53;;;-144.33;100.00
19843;BME280;10082;51.038;6.992;2022-11-15T09:06:00;112171.53;;;-144.33;100.00
19843;BME280;10082;51.038;6.992;2022-11-15T09:08:46;112171.53;;;-144.33;100.00
19843;BME280;10082;51.038;6.992;2022-11-15T09:11:32;112171.53;;;-144.33;100.00
19843;BME280;10082;51.038;6.992;2022-11-15T09:14:19;112171.53;;;-144.33;100.00
19843;BME280;10082;51.038;6.992;2022-11-15T09:17:07;112171.53;;;-144.33;100.00
19843;BME280;10082;51.038;6.992;2022-11-15T09:19:53;112171.53;;;-144.33;100.00
19843;BME280;10082;51.038;6.992;2022-11-15T09:22:39;112171.53;;;-144.33;100.00
19843;BME280;10082;51.038;6.992;2022-11-15T09:25:25;112171.53;;;-144.33;100.00
19843;BME280;10082;51.038;6.992;2022-11-15T09:28:11;112171.53;;;-144.33;100.00
19843;BME280;10082;51.038;6.992;2022-11-15T09:30:59;112171.53;;;-144.33;100.00
19843;BME280;10082;51.038;6.992;2022-11-15T09:33:45;112171.53;;;-144.33;100.00
19843;BME280;10082;51.038;6.992;2022-11-15T09:36:31;112171.53;;;-144.33;100.00
19843;BME280;10082;51.038;6.992;2022-11-15T09:39:17;112171.53;;;-144.33;100.00
19843;BME280;10082;51.038;6.992;2022-11-15T09:42:15;112171.53;;;-144.33;100.00
19843;BME280;10082;51.038;6.992;2022-11-15T09:45:15;112171.53;;;-144.33;100.00
19843;BME280;10082;51.038;6.992;2022-11-15T09:48:19;112171.53;;;-144.33;100.00
19843;BME280;10082;51.038;6.992;2022-11-15T09:51:24;112171.53;;;-144.33;100.00
19843;BME280;10082;51.038;6.992;2022-11-15T09:53:58;112171.53;;;-144.33;100.00
19843;BME280;10082;51.038;6.992;2022-11-15T09:56:30;112171.53;;;-144.33;100.00
19843;BME280;10082;51.038;6.992;2022-11-15T09:59:07;112171.53;;;-144.33;100.00
19843;BME280;10082;51.038;6.992;2022-11-15T10:01:41;112171.53;;;-144.33;100.00
19843;BME280;10082;51.038;6.992;2022-11-15T10:04:13;112171.53;;;-144.33;100.00
19843;BME280;10082;51.038;6.992;2022-11-15T10:06:44;112171.53;;;-144.33;100.00
19843;BME280;10082;51.038;6.992;2022-11-15T10:09:16;112171.53;;;-144.33;100.00
19843;BME280;10082;51.038;6.992;2022-11-15T10:11:47;112171.53;;;-144.33;100.00
19843;BME280;10082;51.038;6.992;2022-11-15T10:14:16;112171.53;;;-144.33;100.00
19843;BME280;10082;51.038;6.992;2022-11-15T10:16:59;112171.53;;;-144.33;100.00
19843;BME280;10082;51.038;6.992;2022-11-15T10:19:35;112171.53;;;-144.33;100.00
19843;BME280;10082;51.038;6.992;2022-11-15T10:22:16;112171.53;;;-144.33;100.00
19843;BME280;10082;51.038;6.992;2022-11-15T10:24:45;112171.53;;;-144.33;100.00
19843;BME280;10082;51.038;6.992;2022-11-15T10:27:16;112171.53;;;-144.33;100.00
19843;BME280;10082;51.038;6.992;2022-11-15T10:29:45;112171.53;;;-144.33;100.00
19843;BME280;10082;51.038;6.992;2022-11-15T10:32:15;112171.53;;;-144.33;100.00
19843;BME280;10082;51.038;6.992;2022-11-15T10:34:45;112171.53;;;-144.33;100.00
19843;BME280;10082;51.038;6.992;2022-11-15T10:37:13;112171.53;;;-144.33;100.00
19843;BME280;10082;51.038;6.992;2022-11-15T10:39:42;112171.53;;;-144.33;99.85
19843;BME280;10082;51.038;6.992;2022-11-15T10:42:16;112171.53;;;-144.33;98.28
19843;BME280;10082;51.038;6.992;2022-11-15T10:44:45;112171.53;;;-144.33;98.05
19843;BME280;10082;51.038;6.992;2022-11-15T10:47:24;112171.53;;;-144.33;97.82
19843;BME280;10082;51.038;6.992;2022-11-15T10:49:58;112171.53;;;-144.33;97.55
19843;BME280;10082;51.038;6.992;2022-11-15T10:52:26;112171.53;;;-144.33;94.29
19843;BME280;10082;51.038;6.992;2022-11-15T10:54:56;112171.53;;;-144.33;92.78
19843;BME280;10082;51.038;6.992;2022-11-15T10:57:26;112171.53;;;-144.33;91.52
19843;BME280;10082;51.038;6.992;2022-11-15T10:59:57;112171.53;;;-144.33;87.88
19843;BME280;10082;51.038;6.992;2022-11-15T11:02:35;112171.53;;;-144.33;86.20
19843;BME280;10082;51.038;6.992;2022-11-15T11:05:06;112171.53;;;-144.33;84.89
19843;BME280;10082;51.038;6.992;2022-11-15T11:07:35;112171.53;;;-144.33;82.20
19843;BME280;10082;51.038;6.992;2022-11-15T11:10:05;112171.53;;;-144.33;78.91
19843;BME280;10082;51.038;6.992;2022-11-15T11:12:33;112171.53;;;-144.33;77.29
19843;BME280;10082;51.038;6.992;2022-11-15T11:15:09;112171.53;;;-144.33;76.06
19843;BME280;10082;51.038;6.992;2022-11-15T11:17:48;112171.53;;;-144.33;75.61
19843;BME280;10082;51.038;6.992;2022-11-15T11:20:23;112171.53;;;-144.33;73.77
19843;BME280;10082;51.038;6.992;2022-11-15T11:23:03;112171.53;;;-144.33;72.58
19843;BME280;10082;51.038;6.992;2022-11-15T11:25:34;112171.53;;;-144.33;72.61
19843;BME280;10082;51.038;6.992;2022-11-15T11:28:21;112171.53;;;-144.33;71.28
19843;BME280;10082;51.038;6.992;2022-11-15T11:31:00;112171.53;;;-144.33;70.86
19843;BME280;10082;51.038;6.992;2022-11-15T11:33:37;112171.53;;;-144.33;70.94
19843;BME280;10082;51.038;6.992;2022-11-15T11:36:21;112171.53;;;-144.33;70.73
19843;BME280;10082;51.038;6.992;2022-11-15T11:38:58;112171.53;;;-144.33;70.97
19843;BME280;10082;51.038;6.992;2022-11-15T11:41:39;112171.53;;;-144.33;71.12
19843;BME280;10082;51.038;6.992;2022-11-15T11:44:20;112171.53;;;-144.33;71.14
19843;BME280;10082;51.038;6.992;2022-11-15T11:46:55;112171.53;;;-144.33;71.03
19843;BME280;10082;51.038;6.992;2022-11-15T11:49:28;112171.53;;;-144.33;70.73
19843;BME280;10082;51.038;6.992;2022-11-15T11:52:01;112171.53;;;-144.33;70.99
19843;BME280;10082;51.038;6.992;2022-11-15T11:54:34;112171.53;;;-144.33;70.78
19843;BME280;10082;51.038;6.992;2022-11-15T11:57:07;112171.53;;;-144.33;70.61
19843;BME280;10082;51.038;6.992;2022-11-15T11:59:42;112171.53;;;-144.33;70.18
19843;BME280;10082;51.038;6.992;2022-11-15T12:02:15;112171.53;;;-144.33;70.43
19843;BME280;10082;51.038;6.992;2022-11-15T12:04:47;112171.53;;;-144.33;69.38
19843;BME280;10082;51.038;6.992;2022-11-15T12:07:21;112171.53;;;-144.33;69.66
19843;BME280;10082;51.038;6.992;2022-11-15T12:09:55;112171.53;;;-144.33;69.47
19843;BME280;10082;51.038;6.992;2022-11-15T12:12:31;112171.53;;;-144.33;69.00
19843;BME280;10082;51.038;6.992;2022-11-15T12:15:03;112171.53;;;-144.33;69.31
19843;BME280;10082;51.038;6.992;2022-11-15T12:17:32;112171.53;;;-144.33;69.83
19843;BME280;10082;51.038;6.992;2022-11-15T12:20:02;112171.53;;;-144.33;69.64
19843;BME280;10082;51.038;6.992;2022-11-15T12:22:38;112171.53;;;-144.33;69.78
19843;BME280;10082;51.038;6.992;2022-11-15T12:25:14;112171.53;;;-144.33;70.36
19843;BME280;10082;51.038;6.992;2022-11-15T12:27:47;112171.53;;;-144.33;70.68
19843;BME280;10082;51.038;6.992;2022-11-15T12:30:18;112171.53;;;-144.33;71.52
19843;BME280;10082;51.038;6.992;2022-11-15T12:32:52;112171.53;;;-144.33;72.81
19843;BME280;10082;51.038;6.992;2022-11-15T12:35:27;112171.53;;;-144.33;72.84
19843;BME280;10082;51.038;6.992;2022-11-15T12:37:56;112171.53;;;-144.33;72.20
19843;BME280;10082;51.038;6.992;2022-11-15T12:46:13;112171.53;;;-144.33;71.48
19843;BME280;10082;51.038;6.992;2022-11-15T12:48:53;112171.53;;;-144.33;71.61
19843;BME280;10082;51.038;6.992;2022-11-15T12:58:24;112171.53;;;-144.33;71.76
19843;BME280;10082;51.038;6.992;2022-11-15T13:00:53;112171.53;;;-144.33;71.42
19843;BME280;10082;51.038;6.992;2022-11-15T13:03:28;112171.53;;;-144.33;71.93
19843;BME280;10082;51.038;6.992;2022-11-15T13:08:59;112171.53;;;-144.33;73.43
19843;BME280;10082;51.038;6.992;2022-11-15T13:11:43;112171.53;;;-144.33;74.01
19843;BME280;10082;51.038;6.992;2022-11-15T13:14:45;112171.53;;;-144.33;75.32
19843;BME280;10082;51.038;6.992;2022-11-15T13:17:29;112171.53;;;-144.33;76.59
19843;BME280;10082;51.038;6.992;2022-11-15T13:20:07;112171.53;;;-144.33;78.29
19843;BME280;10082;51.038;6.992;2022-11-15T13:22:41;112171.53;;;-144.33;80.23
19843;BME280;10082;51.038;6.992;2022-11-15T13:25:19;112171.53;;;-144.33;81.35
19843;BME280;10082;51.038;6.992;2022-11-15T13:27:50;112171.53;;;-144.33;81.82
19843;BME280;10082;51.038;6.992;2022-11-15T13:30:22;112171.53;;;-144.33;82.69
19843;BME280;10082;51.038;6.992;2022-11-15T13:32:51;112171.53;;;-144.33;83.74
19843;BME280;10082;51.038;6.992;2022-11-15T13:35:21;112171.53;;;-144.33;85.22
19843;BME280;10082;51.038;6.992;2022-11-15T13:37:49;112171.53;;;-144.33;86.44
19843;BME280;10082;51.038;6.992;2022-11-15T13:40:23;112171.53;;;-144.33;86.48
19843;BME280;10082;51.038;6.992;2022-11-15T13:42:53;112171.53;;;-144.33;87.59
19843;BME280;10082;51.038;6.992;2022-11-15T13:45:22;112171.53;;;-144.33;88.31
19843;BME280;10082;51.038;6.992;2022-11-15T13:47:52;112171.53;;;-144.33;89.05
19843;BME280;10082;51.038;6.992;2022-11-15T13:50:22;112171.53;;;-144.33;89.48
19843;BME280;10082;51.038;6.992;2022-11-15T13:52:52;112171.53;;;-144.33;90.84
19843;BME280;10082;51.038;6.992;2022-11-15T13:55:21;112171.53;;;-144.33;91.14
19843;BME280;10082;51.038;6.992;2022-11-15T13:57:51;112171.53;;;-144.33;91.68
19843;BME280;10082;51.038;6.992;2022-11-15T14:00:30;112171.53;;;-144.33;91.33
19843;BME280;10082;51.038;6.992;2022-11-15T14:03:06;112171.53;;;-144.33;92.58
19843;BME280;10082;51.038;6.992;2022-11-15T14:05:33;112171.53;;;-144.33;92.67